Terminal Aerodrome Forecast
Issued by NWS

Home | Current Version | Previous Version | Text Only | Print | Product List | Glossary Off
Versions: 1 2 3 4 5 6 7 8 9 10 11 12 13 14 15 16 17 18 19

000
FTUS43 KSGF 071700
TAFJLN
TAF
KJLN 071720Z 0718/0818 03006KT 1 1/2SM -SHRA BR OVC004
     FM080900 09009KT 4SM -SHRA BR OVC009
     FM081500 23011KT 4SM -SHRA BR OVC007=

USA.gov is the U.S. government's official web portal to all federal, state and local government web resources and services.